createdAt,value
2022-08-10T00:01:59.401Z,101175.38
2022-08-10T00:07:00.037Z,101172.00
2022-08-10T00:12:02.057Z,101179.25
2022-08-10T00:17:02.652Z,101175.72
2022-08-10T00:22:03.311Z,101176.97
2022-08-10T00:27:52.339Z,101177.72
2022-08-10T00:32:26.629Z,101179.91
2022-08-10T00:37:27.270Z,101184.72
2022-08-10T00:42:29.247Z,101188.28
2022-08-10T00:47:37.396Z,101186.72
2022-08-10T00:52:39.432Z,101173.84
2022-08-10T00:57:41.783Z,101183.56
2022-08-10T01:02:42.431Z,101176.72
2022-08-10T01:07:54.261Z,101183.63
2022-08-10T01:13:04.044Z,101178.72
2022-08-10T01:18:10.492Z,101174.03
2022-08-10T01:23:48.830Z,101173.50
2022-08-10T01:28:58.204Z,101175.06
2022-08-10T01:34:06.121Z,101179.63
2022-08-10T01:39:08.499Z,101174.13
2022-08-10T01:44:11.413Z,101180.66
2022-08-10T01:49:16.676Z,101174.34
2022-08-10T01:54:22.278Z,101188.28
2022-08-10T01:59:31.027Z,101180.13
2022-08-10T02:04:36.980Z,101183.91
2022-08-10T02:09:40.468Z,101189.69
2022-08-10T02:14:45.999Z,101195.00
2022-08-10T02:19:50.623Z,101195.84
2022-08-10T02:24:53.556Z,101184.22
2022-08-10T02:29:55.675Z,101187.06
2022-08-10T02:34:59.242Z,101194.84
2022-08-10T02:39:59.964Z,101194.78
2022-08-10T02:45:25.602Z,101194.09
2022-08-10T02:50:29.777Z,101184.31
2022-08-10T02:55:36.375Z,101181.25
2022-08-10T03:00:43.352Z,101190.25
2022-08-10T03:05:48.536Z,101193.31
2022-08-10T03:10:51.674Z,101195.91
2022-08-10T03:15:52.935Z,101193.59
2022-08-10T03:20:57.571Z,101191.63
2022-08-10T03:26:00.813Z,101193.44
2022-08-10T03:31:02.738Z,101191.84
2022-08-10T03:36:42.309Z,101196.00
2022-08-10T03:41:35.772Z,101192.59
2022-08-10T03:46:39.609Z,101196.59
2022-08-10T03:51:42.730Z,101197.78
2022-08-10T03:56:43.608Z,101207.47
2022-08-10T04:02:46.138Z,101213.06
2022-08-10T04:07:07.829Z,101221.06
2022-08-10T04:12:10.048Z,101228.06
2022-08-10T04:17:13.953Z,101230.47
2022-08-10T04:22:19.645Z,101233.13
2022-08-10T04:27:20.438Z,101225.28
2022-08-10T04:32:23.082Z,101239.81
2022-08-10T04:37:26.526Z,101239.91
2022-08-10T04:42:27.311Z,101233.00
2022-08-10T04:47:51.246Z,101227.94
2022-08-10T04:52:49.895Z,101233.13
2022-08-10T04:57:50.496Z,101241.00
2022-08-10T05:02:52.051Z,101254.72
2022-08-10T05:07:57.055Z,101252.13
2022-08-10T05:12:57.748Z,101255.41
2022-08-10T05:18:08.228Z,101245.78
2022-08-10T05:23:11.729Z,101249.88
2022-08-10T05:28:12.506Z,101258.66
2022-08-10T05:33:13.192Z,101254.06
2022-08-10T05:38:16.394Z,101252.19
2022-08-10T05:43:19.215Z,101242.53
2022-08-10T05:48:57.252Z,101245.03
2022-08-10T05:54:02.805Z,101242.16
2022-08-10T05:59:02.626Z,101236.75
2022-08-10T06:04:04.911Z,101241.81
2022-08-10T06:09:08.539Z,101241.34
2022-08-10T06:14:28.553Z,101241.38
2022-08-10T06:19:30.649Z,101241.88
2022-08-10T06:24:50.393Z,101235.56
2022-08-10T06:30:01.881Z,101241.25
2022-08-10T06:35:07.113Z,101235.53
2022-08-10T06:40:11.802Z,101236.56
2022-08-10T06:45:16.302Z,101241.91
2022-08-10T06:50:45.565Z,101241.94
2022-08-10T06:55:55.590Z,101244.22
2022-08-10T07:00:58.159Z,101241.78
2022-08-10T07:06:01.660Z,101244.84
2022-08-10T07:11:10.034Z,101246.63
2022-08-10T07:16:14.434Z,101238.38
2022-08-10T07:21:16.807Z,101245.41
2022-08-10T07:26:20.293Z,101242.91
2022-08-10T07:31:54.344Z,101244.09
2022-08-10T07:36:45.588Z,101244.63
2022-08-10T07:41:50.385Z,101239.88
2022-08-10T07:46:55.124Z,101237.63
2022-08-10T07:51:57.266Z,101235.78
2022-08-10T07:57:02.603Z,101229.16
2022-08-10T08:02:06.126Z,101226.16
2022-08-10T08:07:08.633Z,101221.31
2022-08-10T08:12:11.829Z,101220.56
2022-08-10T08:17:16.818Z,101221.03
2022-08-10T08:24:07.958Z,101219.03
2022-08-10T08:27:47.824Z,101218.22
2022-08-10T08:32:50.913Z,101217.47
2022-08-10T08:38:32.851Z,101221.34
2022-08-10T08:43:31.634Z,101211.06
2022-08-10T08:48:47.271Z,101208.72
2022-08-10T08:54:01.970Z,101206.16
2022-08-10T08:59:24.521Z,101205.09
2022-08-10T09:04:37.422Z,101195.84
2022-08-10T09:10:04.589Z,101192.03
2022-08-10T09:15:12.587Z,101178.34
2022-08-10T09:20:40.205Z,101182.78
2022-08-10T09:25:53.512Z,101176.16
2022-08-10T09:31:21.494Z,101170.41
2022-08-10T09:36:32.545Z,101172.25
2022-08-10T09:41:45.370Z,101169.63
2022-08-10T09:47:06.181Z,101158.19
2022-08-10T09:52:17.590Z,101158.66
2022-08-10T09:57:44.576Z,101161.06
2022-08-10T10:02:58.725Z,101157.81
2022-08-10T10:08:08.312Z,101167.69
2022-08-10T10:13:13.324Z,101156.84
2022-08-10T10:18:43.157Z,101158.44
2022-08-10T10:24:20.296Z,101153.63
2022-08-10T10:29:58.407Z,101151.00
2022-08-10T10:35:04.185Z,101140.44
2022-08-10T10:40:08.310Z,101129.97
2022-08-10T10:45:19.040Z,101127.06
2022-08-10T10:50:29.519Z,101131.72
2022-08-10T10:56:14.670Z,101123.47
2022-08-10T11:01:04.781Z,101122.38
2022-08-10T11:06:15.445Z,101116.44
2022-08-10T11:12:00.327Z,101124.97
2022-08-10T11:16:52.871Z,101113.75
2022-08-10T11:22:14.506Z,101113.28
2022-08-10T11:27:23.590Z,101103.59
2022-08-10T11:32:27.442Z,101101.78
2022-08-10T11:38:30.252Z,101095.69
2022-08-10T11:43:10.495Z,101092.25
2022-08-10T11:48:54.162Z,101087.28
2022-08-10T11:53:49.343Z,101084.34
2022-08-10T11:59:17.233Z,101079.38
2022-08-10T12:04:21.419Z,101080.38
2022-08-10T12:10:11.121Z,101072.22
2022-08-10T12:14:51.833Z,101074.22
2022-08-10T12:20:02.723Z,101059.88
2022-08-10T12:25:10.395Z,101060.16
2022-08-10T12:30:15.914Z,101055.44
2022-08-10T12:35:26.297Z,101051.78
2022-08-10T12:40:38.023Z,101052.72
2022-08-10T12:45:43.295Z,101056.84
2022-08-10T12:50:50.903Z,101051.56
2022-08-10T12:55:53.762Z,101056.72
2022-08-10T13:01:15.131Z,101040.94
2022-08-10T13:06:18.515Z,101041.28
2022-08-10T13:12:36.201Z,101034.09
2022-08-10T13:16:48.787Z,101026.91
2022-08-10T13:21:52.878Z,101025.22
2022-08-10T13:27:26.897Z,101013.03
2022-08-10T13:32:33.147Z,101014.09
2022-08-10T13:37:36.954Z,101014.44
2022-08-10T13:42:38.878Z,101014.72
2022-08-10T13:47:49.600Z,101014.94
2022-08-10T13:52:53.662Z,101000.09
2022-08-10T13:57:58.953Z,100990.03
2022-08-10T14:03:10.664Z,100986.75
2022-08-10T14:08:14.767Z,100967.66
2022-08-10T14:13:19.196Z,100965.84
2022-08-10T14:18:21.827Z,100963.22
2022-08-10T14:23:22.587Z,100953.88
2022-08-10T14:28:32.193Z,100967.84
2022-08-10T14:33:36.517Z,100956.44
2022-08-10T14:38:39.956Z,100954.81
2022-08-10T14:43:42.559Z,100945.88
2022-08-10T14:48:48.187Z,100946.13
2022-08-10T14:53:54.131Z,100948.63
2022-08-10T14:58:58.917Z,100950.63
2022-08-10T15:04:12.252Z,100948.53
2022-08-10T15:09:19.506Z,100944.94
2022-08-10T15:14:42.455Z,100939.22
2022-08-10T15:20:03.606Z,100933.44
2022-08-10T15:25:17.838Z,100925.13
2022-08-10T15:30:19.831Z,100926.41
2022-08-10T15:35:41.729Z,100913.44
2022-08-10T15:40:50.546Z,100917.09
2022-08-10T15:46:02.286Z,100910.31
2022-08-10T15:51:10.862Z,100899.38
2022-08-10T15:56:16.176Z,100896.81
2022-08-10T16:02:12.776Z,100892.44
2022-08-10T16:07:11.440Z,100891.78
2022-08-10T16:12:16.376Z,100885.97
2022-08-10T16:17:18.500Z,100885.06
2022-08-10T16:22:36.651Z,100882.22
2022-08-10T16:27:38.507Z,100884.19
2022-08-10T16:32:39.986Z,100874.28
2022-08-10T16:37:58.764Z,100875.50
2022-08-10T16:43:03.532Z,100875.13
2022-08-10T16:48:06.444Z,100881.66
2022-08-10T16:53:13.282Z,100882.16
2022-08-10T16:58:16.703Z,100881.28
2022-08-10T17:03:22.579Z,100871.59
2022-08-10T17:08:48.256Z,100878.19
2022-08-10T17:13:50.255Z,100868.34
2022-08-10T17:18:51.331Z,100863.69
2022-08-10T17:23:55.903Z,100868.28
2022-08-10T17:29:01.859Z,100872.06
2022-08-10T17:34:12.158Z,100875.66
2022-08-10T17:39:16.207Z,100872.94
2022-08-10T17:44:19.981Z,100864.41
2022-08-10T17:49:21.533Z,100865.94
2022-08-10T17:54:28.990Z,100862.13
2022-08-10T17:59:32.914Z,100865.31
2022-08-10T18:04:42.044Z,100867.69
2022-08-10T18:09:49.689Z,100874.16
2022-08-10T18:14:53.260Z,100879.88
2022-08-10T18:19:58.732Z,100883.28
2022-08-10T18:25:01.641Z,100885.44
2022-08-10T18:30:07.446Z,100898.09
2022-08-10T18:35:09.754Z,100896.28
2022-08-10T18:40:13.382Z,100903.88
2022-08-10T18:45:16.524Z,100908.91
2022-08-10T18:50:27.178Z,100915.13
2022-08-10T18:55:35.527Z,100912.25
2022-08-10T19:01:06.882Z,100920.25
2022-08-10T19:06:19.697Z,100917.34
2022-08-10T19:11:35.003Z,100919.88
2022-08-10T19:16:44.131Z,100924.13
2022-08-10T19:21:49.858Z,100918.81
2022-08-10T19:27:04.546Z,100925.19
2022-08-10T19:32:21.580Z,100920.75
2022-08-10T19:37:33.172Z,100929.28
2022-08-10T19:42:40.731Z,100931.56
2022-08-10T19:47:51.631Z,100931.03
2022-08-10T19:53:03.344Z,100928.88
2022-08-10T19:58:12.099Z,100926.72
2022-08-10T20:03:20.184Z,100921.50
2022-08-10T20:08:28.412Z,100924.41
2022-08-10T20:13:38.557Z,100927.75
2022-08-10T20:18:44.504Z,100923.84
2022-08-10T20:23:55.293Z,100925.16
2022-08-10T20:29:08.050Z,100922.72
2022-08-10T20:34:16.681Z,100919.63
2022-08-10T20:39:27.237Z,100923.88
2022-08-10T20:44:39.274Z,100928.66
2022-08-10T20:49:49.764Z,100931.28
2022-08-10T20:54:53.371Z,100927.25
2022-08-10T21:00:07.262Z,100924.13
2022-08-10T21:05:21.690Z,100938.66
2022-08-10T21:10:39.481Z,100932.75
2022-08-10T21:15:55.523Z,100938.09
2022-08-10T21:21:06.173Z,100947.09
2022-08-10T21:26:10.998Z,100940.56
2022-08-10T21:31:26.503Z,100951.38
2022-08-10T21:36:34.813Z,100956.72
2022-08-10T21:42:02.380Z,100954.03
2022-08-10T21:47:42.415Z,100952.09
2022-08-10T21:53:43.560Z,100946.47
2022-08-10T21:59:13.412Z,100949.66
2022-08-10T22:04:34.687Z,100960.28
2022-08-10T22:09:57.814Z,100962.63
2022-08-10T22:15:23.093Z,100963.13
2022-08-10T22:20:45.776Z,100961.06
2022-08-10T22:26:17.707Z,100953.97
2022-08-10T22:31:50.477Z,100953.34
2022-08-10T22:37:38.253Z,100956.88
2022-08-10T22:43:10.484Z,100958.97
2022-08-10T22:48:30.812Z,100961.00
2022-08-10T22:53:56.813Z,100960.59
2022-08-10T22:58:57.513Z,100964.34
2022-08-10T23:04:00.141Z,100966.78
2022-08-10T23:09:04.284Z,100964.75
2022-08-10T23:14:07.768Z,100972.50
2022-08-10T23:19:15.072Z,100967.63
2022-08-10T23:24:23.924Z,100970.22
2022-08-10T23:29:25.868Z,100969.63
2022-08-10T23:34:33.724Z,100969.13
2022-08-10T23:39:39.358Z,100965.97
2022-08-10T23:44:44.192Z,100970.34
2022-08-10T23:49:45.967Z,100967.28
2022-08-10T23:54:51.099Z,100962.38
2022-08-10T23:59:55.876Z,100963.34
